createdAt,value
2018-05-06T00:01:44.265Z,18.97
2018-05-06T00:04:12.231Z,18.60
2018-05-06T00:06:40.314Z,19.00
2018-05-06T00:09:08.276Z,18.30
2018-05-06T00:11:37.787Z,18.90
2018-05-06T00:14:05.747Z,19.67
2018-05-06T00:16:33.825Z,18.90
2018-05-06T00:19:01.891Z,20.47
2018-05-06T00:21:29.867Z,18.43
2018-05-06T00:23:57.828Z,20.07
2018-05-06T00:26:25.793Z,19.53
2018-05-06T00:28:53.765Z,19.40
2018-05-06T00:31:21.737Z,18.37
2018-05-06T00:33:49.812Z,18.27
2018-05-06T00:36:18.488Z,18.83
2018-05-06T00:38:46.527Z,17.80
2018-05-06T00:41:14.643Z,19.10
2018-05-06T00:43:42.611Z,20.23
2018-05-06T00:46:12.115Z,19.47
2018-05-06T00:48:40.072Z,18.57
2018-05-06T00:51:08.045Z,17.57
2018-05-06T00:53:36.014Z,19.77
2018-05-06T00:56:03.979Z,22.00
2018-05-06T00:58:31.953Z,20.23
2018-05-06T01:01:00.637Z,19.90
2018-05-06T01:03:28.615Z,19.70
2018-05-06T01:05:56.673Z,20.93
2018-05-06T01:08:24.655Z,20.77
2018-05-06T01:10:52.726Z,18.53
2018-05-06T01:13:20.683Z,20.50
2018-05-06T01:15:48.664Z,19.50
2018-05-06T01:18:16.634Z,19.50
2018-05-06T01:20:44.590Z,20.27
2018-05-06T01:23:12.563Z,21.83
2018-05-06T01:25:41.348Z,17.70
2018-05-06T01:28:09.321Z,18.60
2018-05-06T01:30:37.288Z,17.90
2018-05-06T01:33:06.792Z,17.50
2018-05-06T01:35:34.759Z,19.33
2018-05-06T01:38:02.739Z,18.70
2018-05-06T01:40:30.694Z,20.13
2018-05-06T01:42:58.620Z,19.00
2018-05-06T01:45:26.633Z,20.93
2018-05-06T01:47:54.606Z,20.63
2018-05-06T01:50:22.586Z,18.60
2018-05-06T01:52:50.540Z,17.13
2018-05-06T01:55:18.628Z,19.90
2018-05-06T01:57:46.590Z,20.83
2018-05-06T02:00:16.090Z,19.97
2018-05-06T02:02:44.931Z,20.73
2018-05-06T02:05:12.845Z,20.00
2018-05-06T02:07:42.346Z,19.40
2018-05-06T02:10:10.315Z,20.23
2018-05-06T02:12:38.296Z,18.83
2018-05-06T02:15:07.074Z,18.73
2018-05-06T02:17:35.123Z,20.57
2018-05-06T02:20:03.112Z,18.30
2018-05-06T02:22:31.083Z,17.60
2018-05-06T02:25:00.486Z,16.27
2018-05-06T02:27:28.452Z,20.27
2018-05-06T02:29:56.420Z,19.27
2018-05-06T02:32:24.453Z,20.00
2018-05-06T02:34:52.477Z,20.20
2018-05-06T02:37:21.969Z,19.63
2018-05-06T02:39:49.946Z,20.97
2018-05-06T02:42:18.734Z,18.70
2018-05-06T02:44:47.515Z,20.70
2018-05-06T02:47:15.486Z,20.10
2018-05-06T02:49:44.997Z,18.37
2018-05-06T02:52:14.503Z,19.10
2018-05-06T02:54:43.175Z,19.87
2018-05-06T02:57:11.149Z,18.97
2018-05-06T02:59:40.754Z,17.90
2018-05-06T03:02:08.838Z,18.77
2018-05-06T03:04:36.792Z,17.87
2018-05-06T03:07:04.762Z,18.93
2018-05-06T03:09:32.745Z,19.60
2018-05-06T03:12:00.718Z,16.07
2018-05-06T03:14:28.671Z,17.07
2018-05-06T03:16:56.749Z,15.90
2018-05-06T03:19:24.657Z,18.00
2018-05-06T03:21:52.677Z,19.03
2018-05-06T03:24:20.644Z,16.80
2018-05-06T03:26:48.626Z,17.70
2018-05-06T03:29:18.124Z,17.47
2018-05-06T03:31:47.637Z,17.97
2018-05-06T03:34:16.425Z,19.20
2018-05-06T03:36:45.211Z,20.03
2018-05-06T03:39:13.999Z,16.83
2018-05-06T03:41:42.779Z,19.10
2018-05-06T03:44:10.744Z,19.20
2018-05-06T03:46:38.714Z,21.10
2018-05-06T03:49:06.695Z,20.30
2018-05-06T03:51:34.664Z,18.67
2018-05-06T03:54:02.622Z,17.87
2018-05-06T03:59:51.605Z,18.67
2018-05-06T04:02:38.520Z,20.43
2018-05-06T04:05:06.486Z,18.97
2018-05-06T04:07:34.569Z,18.73
2018-05-06T04:10:02.639Z,19.63
2018-05-06T04:12:30.710Z,19.80
2018-05-06T04:14:58.665Z,18.33
2018-05-06T04:17:26.636Z,19.77
2018-05-06T04:19:54.606Z,17.60
2018-05-06T04:22:22.575Z,18.60
2018-05-06T04:24:50.553Z,19.13
2018-05-06T04:27:18.615Z,21.27
2018-05-06T04:29:46.584Z,19.03
2018-05-06T04:32:14.562Z,22.70
2018-05-06T04:34:42.518Z,18.87
2018-05-06T04:37:10.487Z,19.33
2018-05-06T04:39:38.456Z,20.57
2018-05-06T04:42:06.432Z,17.90
2018-05-06T04:44:34.405Z,20.60
2018-05-06T04:47:02.367Z,22.20
2018-05-06T04:49:30.446Z,18.70
2018-05-06T04:51:58.403Z,20.57
2018-05-06T04:54:26.385Z,19.33
2018-05-06T04:56:54.341Z,19.67
2018-05-06T04:59:22.309Z,21.10
2018-05-06T05:01:50.290Z,20.00
2018-05-06T05:04:18.251Z,19.13
2018-05-06T05:06:46.330Z,18.77
2018-05-06T05:09:15.127Z,19.70
2018-05-06T05:11:43.087Z,19.87
2018-05-06T05:14:11.159Z,20.77
2018-05-06T05:16:39.134Z,23.23
2018-05-06T05:19:07.910Z,20.63
2018-05-06T05:21:36.704Z,22.10
2018-05-06T05:24:04.877Z,23.40
2018-05-06T05:26:33.657Z,20.00
2018-05-06T05:29:01.625Z,23.00
2018-05-06T05:31:29.594Z,21.30
2018-05-06T05:33:57.575Z,22.17
2018-05-06T05:36:25.532Z,21.87
2018-05-06T05:38:53.511Z,22.40
2018-05-06T05:41:23.013Z,23.73
2018-05-06T05:43:52.725Z,22.97
2018-05-06T05:46:22.230Z,24.17
2018-05-06T05:48:50.189Z,24.40
2018-05-06T05:51:18.160Z,26.80
2018-05-06T05:53:47.671Z,23.40
2018-05-06T05:56:16.454Z,25.33
2018-05-06T05:58:44.417Z,23.93
2018-05-06T06:01:12.386Z,26.03
2018-05-06T06:03:40.362Z,24.63
2018-05-06T06:06:08.329Z,27.43
2018-05-06T06:08:36.304Z,29.67
2018-05-06T06:11:04.274Z,26.60
2018-05-06T06:13:32.240Z,26.30
2018-05-06T06:16:00.205Z,26.27
2018-05-06T06:18:28.173Z,24.67
2018-05-06T06:20:56.854Z,28.20
2018-05-06T06:23:24.829Z,26.40
2018-05-06T06:25:54.332Z,26.53
2018-05-06T06:28:22.513Z,24.57
2018-05-06T06:30:50.482Z,27.47
2018-05-06T06:33:18.546Z,26.73
2018-05-06T06:35:46.509Z,26.00
2018-05-06T06:38:14.501Z,27.30
2018-05-06T06:40:43.272Z,27.83
2018-05-06T06:43:11.236Z,27.97
2018-05-06T06:45:39.213Z,28.53
2018-05-06T06:48:07.206Z,28.30
2018-05-06T06:50:35.245Z,29.67
2018-05-06T06:53:03.225Z,29.90
2018-05-06T06:55:31.297Z,28.00
2018-05-06T06:57:59.358Z,31.77
2018-05-06T07:00:27.325Z,30.90
2018-05-06T07:02:55.296Z,30.27
2018-05-06T07:05:23.264Z,30.53
2018-05-06T07:07:51.235Z,29.50
2018-05-06T07:10:20.126Z,30.13
2018-05-06T07:12:48.922Z,29.77
2018-05-06T07:15:16.878Z,29.60
2018-05-06T07:17:44.850Z,30.23
2018-05-06T07:20:12.815Z,29.10
2018-05-06T07:22:40.788Z,30.73
2018-05-06T07:25:08.756Z,31.53
2018-05-06T07:27:36.728Z,29.00
2018-05-06T07:30:06.343Z,30.63
2018-05-06T07:32:34.301Z,31.23
2018-05-06T07:35:02.267Z,33.40
2018-05-06T07:37:30.236Z,29.67
2018-05-06T07:39:58.208Z,30.80
2018-05-06T07:42:26.186Z,30.33
2018-05-06T07:44:54.154Z,35.13
2018-05-06T07:47:22.117Z,34.03
2018-05-06T07:49:50.085Z,31.67
2018-05-06T07:52:18.049Z,32.40
2018-05-06T07:54:46.018Z,31.17
2018-05-06T07:57:13.992Z,32.10
2018-05-06T07:59:41.960Z,29.67
2018-05-06T08:02:09.937Z,32.47
2018-05-06T08:04:37.893Z,29.43
2018-05-06T08:07:05.866Z,32.20
2018-05-06T08:09:33.833Z,32.47
2018-05-06T08:12:01.812Z,33.43
2018-05-06T08:14:29.781Z,31.63
2018-05-06T08:16:57.738Z,34.23
2018-05-06T08:19:25.719Z,30.73
2018-05-06T08:21:53.741Z,29.27
2018-05-06T08:24:21.753Z,33.77
2018-05-06T08:26:49.720Z,33.03
2018-05-06T08:29:17.695Z,31.17
2018-05-06T08:31:45.653Z,28.30
2018-05-06T08:34:13.626Z,30.93
2018-05-06T08:36:41.592Z,30.03
2018-05-06T08:39:09.521Z,31.70
2018-05-06T08:41:37.541Z,31.90
2018-05-06T08:44:05.612Z,32.00
2018-05-06T08:46:33.683Z,31.10
2018-05-06T08:49:01.646Z,29.70
2018-05-06T08:51:29.625Z,30.93
2018-05-06T08:53:57.686Z,28.63
2018-05-06T08:56:26.468Z,29.17
2018-05-06T08:58:54.445Z,30.67
2018-05-06T09:01:22.409Z,30.60
2018-05-06T09:03:50.490Z,33.07
2018-05-06T09:06:18.447Z,30.33
2018-05-06T09:08:46.427Z,29.57
2018-05-06T09:11:14.536Z,31.13
2018-05-06T09:13:42.558Z,31.37
2018-05-06T09:16:10.540Z,30.30
2018-05-06T09:18:38.497Z,31.77
2018-05-06T09:21:06.468Z,31.57
2018-05-06T09:23:34.446Z,30.00
2018-05-06T09:26:02.411Z,29.57
2018-05-06T09:28:30.373Z,31.13
2018-05-06T09:30:58.660Z,28.87
2018-05-06T09:33:26.620Z,28.53
2018-05-06T09:35:55.306Z,28.83
2018-05-06T09:38:23.385Z,31.20
2018-05-06T09:40:52.173Z,31.93
2018-05-06T09:43:20.135Z,30.20
2018-05-06T09:45:48.102Z,31.90
2018-05-06T09:48:16.072Z,29.37
2018-05-06T09:50:44.138Z,32.07
2018-05-06T09:53:12.107Z,30.67
2018-05-06T09:55:40.076Z,29.97
2018-05-06T09:58:08.050Z,29.97
2018-05-06T10:00:37.563Z,31.00
2018-05-06T10:03:05.523Z,30.40
2018-05-06T10:05:33.488Z,32.00
2018-05-06T10:08:01.460Z,31.37
2018-05-06T10:10:29.430Z,29.07
2018-05-06T10:12:57.406Z,30.93
2018-05-06T10:15:25.375Z,31.13
2018-05-06T10:17:53.331Z,30.40
2018-05-06T10:20:21.300Z,29.20
2018-05-06T10:22:49.282Z,28.20
2018-05-06T10:25:17.242Z,28.33
2018-05-06T10:27:45.219Z,24.00
2018-05-06T10:30:13.176Z,24.60
2018-05-06T10:32:41.145Z,24.13
2018-05-06T10:35:09.120Z,22.30
2018-05-06T10:37:37.083Z,19.73
2018-05-06T10:40:05.051Z,21.47
2018-05-06T10:42:33.032Z,20.90
2018-05-06T10:45:00.994Z,18.70
2018-05-06T10:47:28.963Z,20.17
2018-05-06T10:49:57.758Z,19.43
2018-05-06T10:52:25.720Z,21.27
2018-05-06T10:54:53.684Z,20.67
2018-05-06T10:57:21.767Z,21.80
2018-05-06T10:59:49.829Z,20.20
2018-05-06T11:02:17.795Z,17.53
2018-05-06T11:04:45.764Z,18.20
2018-05-06T11:07:13.744Z,18.30
2018-05-06T11:09:41.714Z,17.40
2018-05-06T11:12:09.683Z,17.67
2018-05-06T11:14:37.645Z,15.07
2018-05-06T11:17:05.620Z,16.50
2018-05-06T11:19:33.689Z,17.37
2018-05-06T11:22:01.664Z,18.50
2018-05-06T11:24:30.438Z,16.00
2018-05-06T11:26:58.405Z,16.40
2018-05-06T11:29:26.386Z,16.77
2018-05-06T11:31:54.343Z,15.40
2018-05-06T11:34:22.426Z,16.07
2018-05-06T11:36:50.388Z,18.13
2018-05-06T11:39:19.491Z,15.63
2018-05-06T11:41:47.452Z,15.70
2018-05-06T11:44:15.417Z,16.13
2018-05-06T11:46:43.493Z,15.83
2018-05-06T11:49:11.455Z,16.20
2018-05-06T11:51:39.437Z,13.40
2018-05-06T11:54:07.394Z,16.23
2018-05-06T11:56:35.374Z,13.83
2018-05-06T11:59:03.331Z,15.80
2018-05-06T12:01:31.408Z,15.83
2018-05-06T12:03:59.374Z,15.07
2018-05-06T12:06:27.454Z,16.50
2018-05-06T12:08:55.517Z,15.17
2018-05-06T12:11:23.495Z,16.07
2018-05-06T12:13:51.450Z,14.73
2018-05-06T12:16:19.424Z,13.70
2018-05-06T12:18:47.401Z,17.93
2018-05-06T12:21:15.359Z,16.33
2018-05-06T12:23:43.327Z,17.17
2018-05-06T12:26:11.299Z,15.20
2018-05-06T12:28:39.276Z,15.47
2018-05-06T12:31:07.246Z,16.97
2018-05-06T12:33:35.288Z,16.10
2018-05-06T12:36:03.274Z,14.87
2018-05-06T12:38:31.255Z,15.80
2018-05-06T12:41:00.086Z,14.50
2018-05-06T12:43:28.205Z,13.40
2018-05-06T12:45:56.173Z,14.00
2018-05-06T12:48:24.146Z,15.87
2018-05-06T12:50:52.110Z,16.90
2018-05-06T12:53:20.082Z,15.70
2018-05-06T12:55:48.164Z,14.00
2018-05-06T12:58:16.132Z,15.47
2018-05-06T13:00:44.195Z,15.80
2018-05-06T13:03:12.172Z,13.50
2018-05-06T13:05:40.140Z,13.90
2018-05-06T13:08:08.099Z,15.23
2018-05-06T13:10:36.070Z,13.70
2018-05-06T13:13:04.039Z,15.07
2018-05-06T13:15:32.015Z,14.67
2018-05-06T13:18:04.921Z,15.03
2018-05-06T13:20:35.430Z,15.67
2018-05-06T13:23:03.388Z,14.23
2018-05-06T13:25:31.350Z,13.60
2018-05-06T13:27:59.438Z,13.37
2018-05-06T13:30:27.502Z,16.67
2018-05-06T13:32:55.469Z,12.80
2018-05-06T13:35:23.652Z,17.17
2018-05-06T13:37:51.608Z,13.97
2018-05-06T13:40:19.578Z,12.60
2018-05-06T13:42:47.547Z,12.00
2018-05-06T13:45:15.526Z,12.00
2018-05-06T13:47:43.599Z,11.87
2018-05-06T13:50:13.147Z,10.77
2018-05-06T13:52:41.880Z,10.87
2018-05-06T13:55:09.852Z,10.30
2018-05-06T13:57:37.923Z,10.77
2018-05-06T14:00:05.901Z,8.90
2018-05-06T14:02:36.828Z,9.63
2018-05-06T14:05:04.910Z,9.77
2018-05-06T14:07:32.972Z,9.67
2018-05-06T14:10:01.027Z,8.87
2018-05-06T14:12:29.012Z,11.13
2018-05-06T14:14:56.990Z,8.90
2018-05-06T14:17:24.958Z,8.90
2018-05-06T14:19:52.920Z,9.40
2018-05-06T14:22:20.885Z,10.20
2018-05-06T14:24:48.853Z,10.23
2018-05-06T14:27:16.835Z,10.00
2018-05-06T14:29:44.803Z,11.60
2018-05-06T14:32:12.772Z,11.20
2018-05-06T14:34:40.740Z,9.43
2018-05-06T14:37:10.850Z,10.40
2018-05-06T14:39:38.892Z,10.20
2018-05-06T14:42:06.791Z,9.73
2018-05-06T14:44:34.760Z,10.83
2018-05-06T14:47:14.300Z,10.80
2018-05-06T14:49:42.277Z,11.40
2018-05-06T14:52:10.232Z,10.57
2018-05-06T14:54:38.202Z,11.30
2018-05-06T14:57:06.170Z,10.53
2018-05-06T14:59:34.095Z,11.57
2018-05-06T15:02:02.006Z,11.70
2018-05-06T15:04:29.975Z,12.17
2018-05-06T15:06:58.057Z,10.90
2018-05-06T15:09:26.026Z,12.17
2018-05-06T15:11:54.091Z,11.27
2018-05-06T15:14:33.666Z,12.03
2018-05-06T15:17:02.415Z,11.77
2018-05-06T15:19:30.383Z,12.80
2018-05-06T15:21:58.357Z,10.87
2018-05-06T15:24:26.439Z,13.73
2018-05-06T15:26:54.392Z,12.67
2018-05-06T15:29:22.363Z,11.80
2018-05-06T15:31:50.330Z,12.20
2018-05-06T15:34:18.299Z,11.90
2018-05-06T15:36:46.267Z,11.30
2018-05-06T15:39:14.236Z,12.97
2018-05-06T15:41:42.205Z,12.40
2018-05-06T15:44:10.180Z,11.43
2018-05-06T15:46:38.144Z,12.10
2018-05-06T15:49:06.227Z,12.27
2018-05-06T15:51:34.296Z,12.00
2018-05-06T15:54:02.361Z,12.47
2018-05-06T15:56:30.326Z,11.10
2018-05-06T15:58:58.295Z,14.03
2018-05-06T16:01:26.276Z,13.90
2018-05-06T16:04:07.647Z,12.90
2018-05-06T16:06:35.683Z,11.83
2018-05-06T16:09:03.784Z,12.53
2018-05-06T16:11:31.760Z,13.47
2018-05-06T16:13:59.740Z,13.70
2018-05-06T16:16:29.335Z,13.83
2018-05-06T16:18:57.316Z,12.90
2018-05-06T16:21:25.375Z,15.30
2018-05-06T16:23:53.360Z,13.63
2018-05-06T16:26:22.132Z,12.33
2018-05-06T16:28:50.113Z,11.77
2018-05-06T16:31:18.181Z,13.73
2018-05-06T16:33:46.255Z,13.50
2018-05-06T16:36:14.211Z,13.00
2018-05-06T16:38:42.617Z,14.23
2018-05-06T16:41:11.383Z,12.27
2018-05-06T16:43:39.347Z,13.33
2018-05-06T16:46:07.319Z,11.73
2018-05-06T16:48:35.291Z,12.40
2018-05-06T16:51:03.266Z,12.67
2018-05-06T16:53:31.222Z,11.70
2018-05-06T16:55:59.205Z,12.33
2018-05-06T16:58:27.266Z,15.10
2018-05-06T17:00:55.236Z,14.37
2018-05-06T17:03:23.212Z,11.77
2018-05-06T17:05:51.274Z,12.77
2018-05-06T17:08:19.354Z,12.70
2018-05-06T17:10:47.426Z,13.87
2018-05-06T17:13:15.383Z,13.50
2018-05-06T17:15:43.467Z,14.00
2018-05-06T17:18:11.427Z,15.67
2018-05-06T17:20:39.395Z,13.97
2018-05-06T17:23:07.364Z,13.13
2018-05-06T17:25:35.330Z,13.80
2018-05-06T17:28:03.215Z,13.80
2018-05-06T17:30:31.170Z,14.90
2018-05-06T17:32:59.957Z,14.40
2018-05-06T17:35:28.038Z,15.40
2018-05-06T17:37:55.993Z,12.43
2018-05-06T17:40:23.962Z,14.43
2018-05-06T17:42:52.018Z,13.87
2018-05-06T17:45:20.833Z,13.83
2018-05-06T17:47:50.331Z,12.50
2018-05-06T17:50:19.229Z,12.27
2018-05-06T17:52:47.185Z,13.93
2018-05-06T17:55:15.371Z,13.83
2018-05-06T17:57:43.432Z,12.90
2018-05-06T18:00:11.504Z,14.40
2018-05-06T18:02:39.482Z,12.47
2018-05-06T18:05:07.554Z,13.43
2018-05-06T18:07:35.674Z,13.30
2018-05-06T18:10:03.643Z,12.10
2018-05-06T18:12:31.644Z,12.80
2018-05-06T18:14:59.460Z,13.30
2018-05-06T18:17:28.175Z,13.30
2018-05-06T18:19:56.084Z,12.90
2018-05-06T18:22:24.955Z,11.20
2018-05-06T18:24:53.689Z,11.13
2018-05-06T18:27:22.415Z,10.70
2018-05-06T18:29:50.279Z,12.77
2018-05-06T18:32:18.229Z,11.00
2018-05-06T18:34:46.097Z,11.33
2018-05-06T18:37:13.962Z,12.57
2018-05-06T18:39:41.917Z,11.90
2018-05-06T18:42:09.772Z,11.77
2018-05-06T18:44:38.465Z,12.17
2018-05-06T18:47:07.236Z,11.23
2018-05-06T18:49:35.116Z,12.27
2018-05-06T18:52:03.833Z,11.87
2018-05-06T18:54:31.736Z,10.70
2018-05-06T18:56:59.664Z,11.30
2018-05-06T18:59:27.536Z,10.30
2018-05-06T19:01:55.409Z,11.10
2018-05-06T19:04:23.348Z,11.20
2018-05-06T19:06:51.352Z,10.70
2018-05-06T19:09:19.278Z,11.57
2018-05-06T19:11:48.033Z,11.53
2018-05-06T19:14:15.943Z,12.17
2018-05-06T19:16:43.876Z,14.00
2018-05-06T19:19:11.767Z,12.83
2018-05-06T19:21:41.570Z,12.40
2018-05-06T19:24:10.212Z,11.87
2018-05-06T19:26:38.143Z,10.60
2018-05-06T19:29:06.061Z,11.23
2018-05-06T19:31:33.908Z,12.33
2018-05-06T19:34:01.868Z,12.50
2018-05-06T19:36:29.813Z,13.33
2018-05-06T19:38:57.716Z,13.70
2018-05-06T19:41:25.653Z,14.00
2018-05-06T19:43:53.612Z,13.70
2018-05-06T19:46:22.347Z,13.10
2018-05-06T19:48:50.372Z,13.57
2018-05-06T19:51:19.093Z,13.20
2018-05-06T19:53:46.964Z,14.20
2018-05-06T19:56:14.919Z,15.40
2018-05-06T19:58:43.086Z,34.87
2018-05-06T20:01:10.968Z,21.47
2018-05-06T20:03:38.841Z,29.03
2018-05-06T20:06:06.724Z,23.37
2018-05-06T20:08:34.684Z,21.90
2018-05-06T20:11:02.584Z,21.50
2018-05-06T20:13:31.279Z,22.30
2018-05-06T20:16:03.364Z,20.50
2018-05-06T20:18:33.593Z,17.63
2018-05-06T20:21:04.673Z,17.50
2018-05-06T20:23:32.610Z,17.57
2018-05-06T20:26:00.500Z,17.97
2018-05-06T20:28:28.428Z,17.57
2018-05-06T20:30:56.300Z,17.43
2018-05-06T20:33:24.250Z,17.17
2018-05-06T20:35:52.884Z,16.83
2018-05-06T20:38:20.835Z,18.70
2018-05-06T20:40:48.721Z,17.00
2018-05-06T20:43:16.576Z,18.73
2018-05-06T20:45:44.431Z,18.23
2018-05-06T20:48:12.379Z,18.53
2018-05-06T20:50:40.302Z,19.07
2018-05-06T20:53:08.132Z,17.60
2018-05-06T20:55:36.037Z,18.30
2018-05-06T20:58:04.617Z,18.60
2018-05-06T21:00:32.528Z,19.27
2018-05-06T21:03:01.194Z,18.07
2018-05-06T21:05:29.864Z,18.73
2018-05-06T21:07:57.729Z,20.10
2018-05-06T21:10:25.634Z,19.60
2018-05-06T21:12:53.532Z,18.30
2018-05-06T21:15:21.395Z,18.03
2018-05-06T21:17:49.328Z,17.97
2018-05-06T21:20:17.954Z,18.57
2018-05-06T21:22:45.839Z,19.53
2018-05-06T21:25:13.736Z,19.40
2018-05-06T21:27:42.526Z,21.37
2018-05-06T21:30:10.461Z,19.40
2018-05-06T21:32:38.417Z,18.87
2018-05-06T21:35:07.249Z,18.90
2018-05-06T21:37:35.916Z,18.80
2018-05-06T21:40:03.913Z,18.93
2018-05-06T21:42:32.548Z,18.50
2018-05-06T21:45:00.533Z,18.17
2018-05-06T21:47:28.472Z,17.97
2018-05-06T21:49:56.378Z,18.67
2018-05-06T21:52:24.236Z,18.60
2018-05-06T21:54:52.724Z,20.13
2018-05-06T21:57:20.560Z,17.80
2018-05-06T21:59:48.438Z,19.50
2018-05-06T22:02:16.283Z,20.53
2018-05-06T22:04:44.213Z,18.67
2018-05-06T22:07:12.848Z,19.60
2018-05-06T22:09:41.554Z,18.47
2018-05-06T22:12:10.265Z,18.47
2018-05-06T22:14:38.928Z,17.80
2018-05-06T22:17:06.946Z,18.63
2018-05-06T22:19:34.779Z,18.03
2018-05-06T22:22:02.648Z,18.10
2018-05-06T22:24:31.363Z,16.73
2018-05-06T22:26:59.274Z,18.27
2018-05-06T22:29:27.166Z,18.43
2018-05-06T22:31:55.211Z,16.83
2018-05-06T22:34:23.081Z,16.87
2018-05-06T22:36:51.078Z,17.53
2018-05-06T22:39:19.708Z,16.33
2018-05-06T22:41:47.586Z,18.17
2018-05-06T22:44:15.536Z,16.83
2018-05-06T22:46:43.457Z,17.63
2018-05-06T22:49:11.291Z,18.37
2018-05-06T22:51:39.160Z,17.37
2018-05-06T22:54:07.105Z,18.70
2018-05-06T22:56:35.072Z,18.60
2018-05-06T22:59:03.047Z,17.83
2018-05-06T23:01:30.948Z,22.70
2018-05-06T23:03:58.809Z,18.43
2018-05-06T23:06:26.736Z,20.00
2018-05-06T23:08:54.644Z,19.50
2018-05-06T23:11:22.589Z,19.40
2018-05-06T23:13:50.459Z,19.10
2018-05-06T23:16:18.407Z,18.57
2018-05-06T23:18:46.595Z,20.00
2018-05-06T23:21:14.509Z,19.83
2018-05-06T23:23:42.359Z,20.27
2018-05-06T23:26:11.052Z,20.40
2018-05-06T23:28:38.996Z,18.23
2018-05-06T23:31:06.856Z,18.87
2018-05-06T23:33:34.799Z,19.40
2018-05-06T23:36:02.669Z,18.27
2018-05-06T23:38:30.592Z,20.10
2018-05-06T23:40:58.525Z,19.20
2018-05-06T23:43:26.388Z,20.30
2018-05-06T23:45:54.249Z,18.17
2018-05-06T23:48:22.147Z,19.03
2018-05-06T23:50:50.132Z,17.23
2018-05-06T23:53:18.016Z,18.13
2018-05-06T23:55:46.665Z,17.47
2018-05-06T23:58:14.532Z,18.67
